New Iberia, LA (70560)

7:38 PM CDT on June 28, 2017 (GMT -0500)
New Iberia City Park Neighborhood | | Change Station

Elev 43 ft 30.00 °N, 91.80 °W | Updated 15 seconds ago

Rain
Rain
75.7 °F
Feels Like 74 °F
N
1.1
Wind Variable Wind from WSW
Gusts 2.5 mph

Today
High -- | Low -- °F
--% Chance of Precip.
Yesterday
High -- | Low -- °F
Precip. -- in
Pressure 29.94 in
Visibility 7.0 miles
Clouds Mostly Cloudy 2300 ft
Overcast 2800 ft
Heat Index 74 °F
Dew Point 76 °F
Humidity 99%
Rainfall 0.11 in
Snow Depth Not available.
6:08 AM 8:12 PM
Waxing Crescent, 30% visible
METAR KARA 282353Z 12008KT 7SM BKN023 OVC028 24/22 A2994 RMK AO2 RAB05E26B34E46 SLP137 P0000 60008 T02440222 10250 20233 56006
Pressure 29.94 in
Visibility 7.0 miles
Clouds Mostly Cloudy 2300 ft
Overcast 2800 ft
Heat Index 74 °F
Dew Point 76 °F
Humidity 99%
Rainfall 0.11 in
Snow Depth Not available.
6:08 AM 8:12 PM
Waxing Crescent, 30% visible
METAR KARA 282353Z 12008KT 7SM BKN023 OVC028 24/22 A2994 RMK AO2 RAB05E26B34E46 SLP137 P0000 60008 T02440222 10250 20233 56006

Get Severe Weather Alerts

Thanks for signing up!

Be on the lookout for a verification email in your inbox.

You'll start receiving the daily forecast at 6 AM.

×

10-Day Weather Forecast

Almanac

Astronomy

Jun. 28, 2017 Rise Set
Actual Time
Civil Twilight
Nautical Twilight
Astronomical Twilight
Moon
Length of Visible Light
Length of Day
Tomorrow will be .
, % of the Moon is Illuminated

Today's Extremes

State Highs State Lows

Community

WunderPhotos

Category 6

Welcome to Category 6. This is the collective home for Weather Underground's featured writeups by Dr. Jeff Masters (right), Bob Henson (left), Chris Burt, and other regular contributors.

Nearby

Air Quality

  Air Quality AQ Index Pollutant
Not available.

Snow Depth

Station Depth Elevation

Earthquake Activity

City Distance Mag. Time & Date
Minimum magnitude displayed is 2.5.

Coastal Water Temperatures

Place Temperature

Stations

Nearby Weather Stations

Station Location Temp. Windchill Dew Point Humidity Wind Precip. Elev Updated Type
                   

Watches & Warnings

There are currently no watches in effect.